sensor_id;sensor_type;location;lat;lon;timestamp;P1;durP1;ratioP1;P2;durP2;ratioP2
6937;SDS011;40040;42.706;23.372;2022-09-01T00:01:09;16.90;;;12.02;;
6937;SDS011;40040;42.706;23.372;2022-09-01T00:03:39;16.83;;;12.15;;
6937;SDS011;40040;42.706;23.372;2022-09-01T00:06:06;17.05;;;12.38;;
6937;SDS011;40040;42.706;23.372;2022-09-01T00:08:37;17.58;;;12.35;;
6937;SDS011;40040;42.706;23.372;2022-09-01T00:11:04;16.60;;;12.43;;
6937;SDS011;40040;42.706;23.372;2022-09-01T00:13:31;17.13;;;12.65;;
6937;SDS011;40040;42.706;23.372;2022-09-01T00:15:59;15.63;;;12.00;;
6937;SDS011;40040;42.706;23.372;2022-09-01T00:18:28;14.85;;;12.07;;
6937;SDS011;40040;42.706;23.372;2022-09-01T00:20:57;17.13;;;12.60;;
6937;SDS011;40040;42.706;23.372;2022-09-01T00:23:27;15.32;;;11.85;;
6937;SDS011;40040;42.706;23.372;2022-09-01T00:25:56;15.55;;;11.90;;
6937;SDS011;40040;42.706;23.372;2022-09-01T00:28:23;14.82;;;12.00;;
6937;SDS011;40040;42.706;23.372;2022-09-01T00:30:50;17.70;;;12.57;;
6937;SDS011;40040;42.706;23.372;2022-09-01T00:33:17;15.50;;;11.75;;
6937;SDS011;40040;42.706;23.372;2022-09-01T00:35:44;15.35;;;12.02;;
6937;SDS011;40040;42.706;23.372;2022-09-01T00:38:11;16.48;;;11.85;;
6937;SDS011;40040;42.706;23.372;2022-09-01T00:40:38;16.27;;;12.00;;
6937;SDS011;40040;42.706;23.372;2022-09-01T00:43:14;17.88;;;13.20;;
6937;SDS011;40040;42.706;23.372;2022-09-01T00:45:46;15.13;;;11.25;;
6937;SDS011;40040;42.706;23.372;2022-09-01T00:48:16;16.48;;;11.98;;
6937;SDS011;40040;42.706;23.372;2022-09-01T00:50:44;16.63;;;12.38;;
6937;SDS011;40040;42.706;23.372;2022-09-01T00:53:12;15.85;;;12.80;;
6937;SDS011;40040;42.706;23.372;2022-09-01T00:55:39;19.65;;;12.85;;
6937;SDS011;40040;42.706;23.372;2022-09-01T00:58:07;17.40;;;12.65;;
6937;SDS011;40040;42.706;23.372;2022-09-01T01:00:36;16.98;;;12.70;;
6937;SDS011;40040;42.706;23.372;2022-09-01T01:03:05;18.58;;;12.38;;
6937;SDS011;40040;42.706;23.372;2022-09-01T01:05:35;18.40;;;13.05;;
6937;SDS011;40040;42.706;23.372;2022-09-01T01:08:05;19.70;;;13.13;;
6937;SDS011;40040;42.706;23.372;2022-09-01T01:10:34;20.52;;;13.05;;
6937;SDS011;40040;42.706;23.372;2022-09-01T01:13:05;16.88;;;12.23;;
6937;SDS011;40040;42.706;23.372;2022-09-01T01:15:35;21.98;;;13.60;;
6937;SDS011;40040;42.706;23.372;2022-09-01T01:18:03;18.55;;;13.27;;
6937;SDS011;40040;42.706;23.372;2022-09-01T01:20:30;18.38;;;12.95;;
6937;SDS011;40040;42.706;23.372;2022-09-01T01:23:20;16.75;;;13.00;;
6937;SDS011;40040;42.706;23.372;2022-09-01T01:25:57;17.45;;;13.38;;
6937;SDS011;40040;42.706;23.372;2022-09-01T01:28:26;19.25;;;13.52;;
6937;SDS011;40040;42.706;23.372;2022-09-01T01:30:58;17.35;;;13.65;;
6937;SDS011;40040;42.706;23.372;2022-09-01T01:33:28;16.70;;;13.23;;
6937;SDS011;40040;42.706;23.372;2022-09-01T01:35:57;19.73;;;13.05;;
6937;SDS011;40040;42.706;23.372;2022-09-01T01:38:24;17.90;;;13.30;;
6937;SDS011;40040;42.706;23.372;2022-09-01T01:40:51;20.08;;;13.38;;
6937;SDS011;40040;42.706;23.372;2022-09-01T01:43:20;21.02;;;14.73;;
6937;SDS011;40040;42.706;23.372;2022-09-01T01:45:47;17.33;;;13.35;;
6937;SDS011;40040;42.706;23.372;2022-09-01T01:48:16;17.38;;;13.73;;
6937;SDS011;40040;42.706;23.372;2022-09-01T01:50:48;18.27;;;13.68;;
6937;SDS011;40040;42.706;23.372;2022-09-01T01:53:16;19.35;;;13.85;;
6937;SDS011;40040;42.706;23.372;2022-09-01T01:55:44;18.67;;;13.32;;
6937;SDS011;40040;42.706;23.372;2022-09-01T01:58:12;21.20;;;13.55;;
6937;SDS011;40040;42.706;23.372;2022-09-01T02:00:41;17.15;;;13.40;;
6937;SDS011;40040;42.706;23.372;2022-09-01T02:03:10;17.83;;;13.73;;
6937;SDS011;40040;42.706;23.372;2022-09-01T02:05:41;18.83;;;13.70;;
6937;SDS011;40040;42.706;23.372;2022-09-01T02:08:08;19.00;;;12.95;;
6937;SDS011;40040;42.706;23.372;2022-09-01T02:10:37;18.92;;;13.75;;
6937;SDS011;40040;42.706;23.372;2022-09-01T02:13:06;20.33;;;13.88;;
6937;SDS011;40040;42.706;23.372;2022-09-01T02:15:37;16.80;;;13.30;;
6937;SDS011;40040;42.706;23.372;2022-09-01T02:18:09;18.70;;;14.43;;
6937;SDS011;40040;42.706;23.372;2022-09-01T02:20:38;20.23;;;14.18;;
6937;SDS011;40040;42.706;23.372;2022-09-01T02:23:06;20.52;;;13.95;;
6937;SDS011;40040;42.706;23.372;2022-09-01T02:25:35;18.48;;;14.30;;
6937;SDS011;40040;42.706;23.372;2022-09-01T02:28:03;20.10;;;14.65;;
6937;SDS011;40040;42.706;23.372;2022-09-01T02:30:34;20.15;;;14.98;;
6937;SDS011;40040;42.706;23.372;2022-09-01T02:33:02;18.98;;;14.85;;
6937;SDS011;40040;42.706;23.372;2022-09-01T02:35:30;21.73;;;15.40;;
6937;SDS011;40040;42.706;23.372;2022-09-01T02:37:58;23.42;;;16.08;;
6937;SDS011;40040;42.706;23.372;2022-09-01T02:40:26;23.90;;;15.15;;
6937;SDS011;40040;42.706;23.372;2022-09-01T02:42:54;21.58;;;16.30;;
6937;SDS011;40040;42.706;23.372;2022-09-01T02:45:22;27.15;;;15.23;;
6937;SDS011;40040;42.706;23.372;2022-09-01T02:47:49;19.17;;;15.10;;
6937;SDS011;40040;42.706;23.372;2022-09-01T02:50:18;22.42;;;15.05;;
6937;SDS011;40040;42.706;23.372;2022-09-01T02:52:48;21.80;;;15.65;;
6937;SDS011;40040;42.706;23.372;2022-09-01T02:55:16;20.80;;;15.07;;
6937;SDS011;40040;42.706;23.372;2022-09-01T02:57:45;22.75;;;15.75;;
6937;SDS011;40040;42.706;23.372;2022-09-01T03:00:12;19.60;;;15.82;;
6937;SDS011;40040;42.706;23.372;2022-09-01T03:02:48;23.08;;;16.65;;
6937;SDS011;40040;42.706;23.372;2022-09-01T03:05:17;23.80;;;16.52;;
6937;SDS011;40040;42.706;23.372;2022-09-01T03:07:51;24.38;;;17.27;;
6937;SDS011;40040;42.706;23.372;2022-09-01T03:10:22;22.25;;;16.08;;
6937;SDS011;40040;42.706;23.372;2022-09-01T03:12:57;24.10;;;16.80;;
6937;SDS011;40040;42.706;23.372;2022-09-01T03:15:26;22.27;;;16.13;;
6937;SDS011;40040;42.706;23.372;2022-09-01T03:17:53;23.08;;;16.27;;
6937;SDS011;40040;42.706;23.372;2022-09-01T03:20:20;25.40;;;16.83;;
6937;SDS011;40040;42.706;23.372;2022-09-01T03:22:47;26.85;;;18.70;;
6937;SDS011;40040;42.706;23.372;2022-09-01T03:25:16;27.02;;;18.40;;
6937;SDS011;40040;42.706;23.372;2022-09-01T03:27:44;29.02;;;19.38;;
6937;SDS011;40040;42.706;23.372;2022-09-01T03:30:12;23.42;;;16.17;;
6937;SDS011;40040;42.706;23.372;2022-09-01T03:32:39;24.00;;;16.70;;
6937;SDS011;40040;42.706;23.372;2022-09-01T03:35:07;23.45;;;16.52;;
6937;SDS011;40040;42.706;23.372;2022-09-01T03:37:34;25.77;;;17.70;;
6937;SDS011;40040;42.706;23.372;2022-09-01T03:40:02;24.85;;;17.25;;
6937;SDS011;40040;42.706;23.372;2022-09-01T03:42:31;24.48;;;16.88;;
6937;SDS011;40040;42.706;23.372;2022-09-01T03:44:58;31.95;;;18.25;;
6937;SDS011;40040;42.706;23.372;2022-09-01T03:47:33;28.08;;;18.10;;
6937;SDS011;40040;42.706;23.372;2022-09-01T03:50:06;29.55;;;17.95;;
6937;SDS011;40040;42.706;23.372;2022-09-01T03:52:37;26.83;;;18.20;;
6937;SDS011;40040;42.706;23.372;2022-09-01T03:55:05;27.13;;;17.60;;
6937;SDS011;40040;42.706;23.372;2022-09-01T03:57:35;27.05;;;17.58;;
6937;SDS011;40040;42.706;23.372;2022-09-01T04:00:07;27.08;;;18.10;;
6937;SDS011;40040;42.706;23.372;2022-09-01T04:02:44;29.67;;;17.95;;
6937;SDS011;40040;42.706;23.372;2022-09-01T04:05:13;30.80;;;18.25;;
6937;SDS011;40040;42.706;23.372;2022-09-01T04:07:40;30.33;;;18.38;;
6937;SDS011;40040;42.706;23.372;2022-09-01T04:10:12;29.02;;;18.67;;
6937;SDS011;40040;42.706;23.372;2022-09-01T04:12:42;33.88;;;19.05;;
6937;SDS011;40040;42.706;23.372;2022-09-01T04:15:10;28.83;;;18.75;;
6937;SDS011;40040;42.706;23.372;2022-09-01T04:17:38;34.38;;;20.00;;
6937;SDS011;40040;42.706;23.372;2022-09-01T04:20:22;34.75;;;19.60;;
6937;SDS011;40040;42.706;23.372;2022-09-01T04:22:49;35.10;;;20.25;;
6937;SDS011;40040;42.706;23.372;2022-09-01T04:25:17;40.00;;;20.25;;
6937;SDS011;40040;42.706;23.372;2022-09-01T04:27:49;35.60;;;20.95;;
6937;SDS011;40040;42.706;23.372;2022-09-01T04:30:19;36.38;;;20.88;;
6937;SDS011;40040;42.706;23.372;2022-09-01T04:32:49;44.22;;;26.20;;
6937;SDS011;40040;42.706;23.372;2022-09-01T04:35:16;43.55;;;25.38;;
6937;SDS011;40040;42.706;23.372;2022-09-01T04:37:43;48.28;;;25.65;;
6937;SDS011;40040;42.706;23.372;2022-09-01T04:40:10;50.00;;;25.50;;
6937;SDS011;40040;42.706;23.372;2022-09-01T04:42:39;47.20;;;26.40;;
6937;SDS011;40040;42.706;23.372;2022-09-01T04:45:09;51.78;;;26.20;;
6937;SDS011;40040;42.706;23.372;2022-09-01T04:47:37;54.72;;;26.05;;
6937;SDS011;40040;42.706;23.372;2022-09-01T04:50:06;49.50;;;25.85;;
6937;SDS011;40040;42.706;23.372;2022-09-01T04:52:38;49.90;;;25.67;;
6937;SDS011;40040;42.706;23.372;2022-09-01T04:55:07;47.22;;;24.95;;
6937;SDS011;40040;42.706;23.372;2022-09-01T04:57:42;42.08;;;23.35;;
6937;SDS011;40040;42.706;23.372;2022-09-01T05:00:13;48.88;;;26.67;;
6937;SDS011;40040;42.706;23.372;2022-09-01T05:02:47;53.55;;;26.60;;
6937;SDS011;40040;42.706;23.372;2022-09-01T05:05:16;53.33;;;27.92;;
6937;SDS011;40040;42.706;23.372;2022-09-01T05:07:44;46.75;;;27.38;;
6937;SDS011;40040;42.706;23.372;2022-09-01T05:10:15;47.72;;;26.08;;
6937;SDS011;40040;42.706;23.372;2022-09-01T05:12:42;48.40;;;26.00;;
6937;SDS011;40040;42.706;23.372;2022-09-01T05:15:10;49.47;;;26.40;;
6937;SDS011;40040;42.706;23.372;2022-09-01T05:17:39;45.78;;;26.25;;
6937;SDS011;40040;42.706;23.372;2022-09-01T05:20:08;45.72;;;26.02;;
6937;SDS011;40040;42.706;23.372;2022-09-01T05:22:36;46.05;;;25.85;;
6937;SDS011;40040;42.706;23.372;2022-09-01T05:25:05;46.08;;;25.60;;
6937;SDS011;40040;42.706;23.372;2022-09-01T05:27:38;50.03;;;26.33;;
6937;SDS011;40040;42.706;23.372;2022-09-01T05:30:07;44.00;;;25.10;;
6937;SDS011;40040;42.706;23.372;2022-09-01T05:32:34;43.10;;;25.10;;
6937;SDS011;40040;42.706;23.372;2022-09-01T05:35:05;44.28;;;25.02;;
6937;SDS011;40040;42.706;23.372;2022-09-01T05:37:33;47.47;;;24.92;;
6937;SDS011;40040;42.706;23.372;2022-09-01T05:40:03;45.78;;;25.33;;
6937;SDS011;40040;42.706;23.372;2022-09-01T05:42:32;44.20;;;24.60;;
6937;SDS011;40040;42.706;23.372;2022-09-01T05:44:59;48.80;;;28.38;;
6937;SDS011;40040;42.706;23.372;2022-09-01T05:47:26;47.50;;;28.35;;
6937;SDS011;40040;42.706;23.372;2022-09-01T05:49:53;52.30;;;27.52;;
6937;SDS011;40040;42.706;23.372;2022-09-01T05:52:24;53.75;;;26.95;;
6937;SDS011;40040;42.706;23.372;2022-09-01T05:54:52;48.92;;;27.15;;
6937;SDS011;40040;42.706;23.372;2022-09-01T05:57:19;44.60;;;27.23;;
6937;SDS011;40040;42.706;23.372;2022-09-01T05:59:47;52.92;;;28.77;;
6937;SDS011;40040;42.706;23.372;2022-09-01T06:02:18;49.22;;;27.13;;
6937;SDS011;40040;42.706;23.372;2022-09-01T06:04:46;48.35;;;26.95;;
6937;SDS011;40040;42.706;23.372;2022-09-01T06:07:13;46.30;;;26.02;;
6937;SDS011;40040;42.706;23.372;2022-09-01T06:09:44;49.00;;;26.85;;
6937;SDS011;40040;42.706;23.372;2022-09-01T06:12:12;46.40;;;26.25;;
6937;SDS011;40040;42.706;23.372;2022-09-01T06:14:44;44.28;;;25.33;;
6937;SDS011;40040;42.706;23.372;2022-09-01T06:17:12;45.78;;;26.02;;
6937;SDS011;40040;42.706;23.372;2022-09-01T06:19:40;44.50;;;25.85;;
6937;SDS011;40040;42.706;23.372;2022-09-01T06:22:08;43.40;;;26.58;;
6937;SDS011;40040;42.706;23.372;2022-09-01T06:24:35;48.40;;;26.15;;
6937;SDS011;40040;42.706;23.372;2022-09-01T06:27:05;48.47;;;26.08;;
6937;SDS011;40040;42.706;23.372;2022-09-01T06:29:34;44.30;;;25.10;;
6937;SDS011;40040;42.706;23.372;2022-09-01T06:32:02;45.03;;;24.55;;
6937;SDS011;40040;42.706;23.372;2022-09-01T06:34:32;39.55;;;23.88;;
6937;SDS011;40040;42.706;23.372;2022-09-01T06:37:00;43.63;;;24.10;;
6937;SDS011;40040;42.706;23.372;2022-09-01T06:39:27;44.75;;;25.88;;
6937;SDS011;40040;42.706;23.372;2022-09-01T06:41:55;41.30;;;24.88;;
6937;SDS011;40040;42.706;23.372;2022-09-01T06:44:24;44.80;;;26.88;;
6937;SDS011;40040;42.706;23.372;2022-09-01T06:46:51;45.50;;;25.85;;
6937;SDS011;40040;42.706;23.372;2022-09-01T06:49:19;41.50;;;25.95;;
6937;SDS011;40040;42.706;23.372;2022-09-01T06:51:48;41.08;;;25.17;;
6937;SDS011;40040;42.706;23.372;2022-09-01T06:54:17;42.80;;;26.00;;
6937;SDS011;40040;42.706;23.372;2022-09-01T06:56:44;41.50;;;25.08;;
6937;SDS011;40040;42.706;23.372;2022-09-01T06:59:11;42.60;;;24.77;;
6937;SDS011;40040;42.706;23.372;2022-09-01T07:01:41;40.45;;;24.88;;
6937;SDS011;40040;42.706;23.372;2022-09-01T07:04:08;46.03;;;26.20;;
6937;SDS011;40040;42.706;23.372;2022-09-01T07:06:36;39.70;;;23.88;;
6937;SDS011;40040;42.706;23.372;2022-09-01T07:09:06;41.78;;;25.00;;
6937;SDS011;40040;42.706;23.372;2022-09-01T07:11:33;38.72;;;25.25;;
6937;SDS011;40040;42.706;23.372;2022-09-01T07:14:02;39.45;;;24.50;;
6937;SDS011;40040;42.706;23.372;2022-09-01T07:16:32;37.67;;;25.35;;
6937;SDS011;40040;42.706;23.372;2022-09-01T07:19:06;39.90;;;24.88;;
6937;SDS011;40040;42.706;23.372;2022-09-01T07:21:39;37.45;;;24.23;;
6937;SDS011;40040;42.706;23.372;2022-09-01T07:24:07;41.25;;;24.83;;
6937;SDS011;40040;42.706;23.372;2022-09-01T07:26:35;40.83;;;23.70;;
6937;SDS011;40040;42.706;23.372;2022-09-01T07:29:03;38.88;;;24.38;;
6937;SDS011;40040;42.706;23.372;2022-09-01T07:31:36;37.85;;;23.98;;
6937;SDS011;40040;42.706;23.372;2022-09-01T07:34:06;37.45;;;24.67;;
6937;SDS011;40040;42.706;23.372;2022-09-01T07:36:36;38.42;;;23.75;;
6937;SDS011;40040;42.706;23.372;2022-09-01T07:39:05;35.85;;;23.67;;
6937;SDS011;40040;42.706;23.372;2022-09-01T07:41:32;34.22;;;22.83;;
6937;SDS011;40040;42.706;23.372;2022-09-01T07:44:00;40.65;;;25.08;;
6937;SDS011;40040;42.706;23.372;2022-09-01T07:46:29;36.55;;;24.70;;
6937;SDS011;40040;42.706;23.372;2022-09-01T07:48:57;36.03;;;23.63;;
6937;SDS011;40040;42.706;23.372;2022-09-01T07:51:27;34.65;;;23.10;;
6937;SDS011;40040;42.706;23.372;2022-09-01T07:53:55;34.92;;;23.55;;
6937;SDS011;40040;42.706;23.372;2022-09-01T07:56:23;34.03;;;23.25;;
6937;SDS011;40040;42.706;23.372;2022-09-01T07:58:50;37.58;;;22.90;;
6937;SDS011;40040;42.706;23.372;2022-09-01T08:01:19;34.90;;;23.98;;
6937;SDS011;40040;42.706;23.372;2022-09-01T08:03:47;35.55;;;23.15;;
6937;SDS011;40040;42.706;23.372;2022-09-01T08:06:17;35.75;;;22.65;;
6937;SDS011;40040;42.706;23.372;2022-09-01T08:08:47;41.28;;;27.48;;
6937;SDS011;40040;42.706;23.372;2022-09-01T08:11:15;48.75;;;30.60;;
6937;SDS011;40040;42.706;23.372;2022-09-01T08:13:43;56.38;;;34.35;;
6937;SDS011;40040;42.706;23.372;2022-09-01T08:16:11;54.78;;;33.90;;
6937;SDS011;40040;42.706;23.372;2022-09-01T08:18:39;44.53;;;30.70;;
6937;SDS011;40040;42.706;23.372;2022-09-01T08:21:07;41.55;;;27.15;;
6937;SDS011;40040;42.706;23.372;2022-09-01T08:23:35;39.85;;;25.73;;
6937;SDS011;40040;42.706;23.372;2022-09-01T08:26:05;39.22;;;26.48;;
6937;SDS011;40040;42.706;23.372;2022-09-01T08:28:33;43.13;;;29.13;;
6937;SDS011;40040;42.706;23.372;2022-09-01T08:31:04;44.40;;;28.45;;
6937;SDS011;40040;42.706;23.372;2022-09-01T08:33:32;46.90;;;31.23;;
6937;SDS011;40040;42.706;23.372;2022-09-01T08:35:59;38.15;;;26.98;;
6937;SDS011;40040;42.706;23.372;2022-09-01T08:38:27;40.83;;;28.50;;
6937;SDS011;40040;42.706;23.372;2022-09-01T08:40:57;38.53;;;28.48;;
6937;SDS011;40040;42.706;23.372;2022-09-01T08:43:33;40.72;;;27.23;;
6937;SDS011;40040;42.706;23.372;2022-09-01T08:46:12;32.10;;;24.80;;
6937;SDS011;40040;42.706;23.372;2022-09-01T08:48:43;30.63;;;23.95;;
6937;SDS011;40040;42.706;23.372;2022-09-01T08:51:14;31.80;;;21.25;;
6937;SDS011;40040;42.706;23.372;2022-09-01T08:53:49;27.05;;;21.75;;
6937;SDS011;40040;42.706;23.372;2022-09-01T08:56:22;26.70;;;20.45;;
6937;SDS011;40040;42.706;23.372;2022-09-01T08:58:52;24.20;;;17.58;;
6937;SDS011;40040;42.706;23.372;2022-09-01T09:01:21;28.08;;;18.15;;
6937;SDS011;40040;42.706;23.372;2022-09-01T09:04:03;26.85;;;18.73;;
6937;SDS011;40040;42.706;23.372;2022-09-01T09:06:41;26.58;;;18.45;;
6937;SDS011;40040;42.706;23.372;2022-09-01T09:09:17;26.08;;;17.10;;
6937;SDS011;40040;42.706;23.372;2022-09-01T09:11:55;22.98;;;16.67;;
6937;SDS011;40040;42.706;23.372;2022-09-01T09:14:40;24.25;;;16.50;;
6937;SDS011;40040;42.706;23.372;2022-09-01T09:17:18;24.73;;;16.02;;
6937;SDS011;40040;42.706;23.372;2022-09-01T09:19:49;21.45;;;14.43;;
6937;SDS011;40040;42.706;23.372;2022-09-01T09:22:18;15.55;;;13.40;;
6937;SDS011;40040;42.706;23.372;2022-09-01T09:24:47;17.05;;;13.55;;
6937;SDS011;40040;42.706;23.372;2022-09-01T09:27:18;19.38;;;13.68;;
6937;SDS011;40040;42.706;23.372;2022-09-01T09:29:48;17.38;;;13.52;;
6937;SDS011;40040;42.706;23.372;2022-09-01T09:32:17;17.95;;;12.52;;
6937;SDS011;40040;42.706;23.372;2022-09-01T09:34:46;18.25;;;12.55;;
6937;SDS011;40040;42.706;23.372;2022-09-01T09:37:19;14.75;;;12.18;;
6937;SDS011;40040;42.706;23.372;2022-09-01T09:42:40;15.25;;;12.40;;
6937;SDS011;40040;42.706;23.372;2022-09-01T09:45:20;13.68;;;12.23;;
6937;SDS011;40040;42.706;23.372;2022-09-01T09:47:49;17.38;;;12.55;;
6937;SDS011;40040;42.706;23.372;2022-09-01T09:50:19;16.52;;;12.05;;
6937;SDS011;40040;42.706;23.372;2022-09-01T09:52:49;16.50;;;13.05;;
6937;SDS011;40040;42.706;23.372;2022-09-01T09:55:24;18.10;;;13.02;;
6937;SDS011;40040;42.706;23.372;2022-09-01T09:57:54;13.77;;;12.20;;
6937;SDS011;40040;42.706;23.372;2022-09-01T10:00:25;13.75;;;11.50;;
6937;SDS011;40040;42.706;23.372;2022-09-01T10:02:55;15.10;;;11.93;;
6937;SDS011;40040;42.706;23.372;2022-09-01T10:05:32;14.82;;;11.90;;
6937;SDS011;40040;42.706;23.372;2022-09-01T10:08:02;13.07;;;10.30;;
6937;SDS011;40040;42.706;23.372;2022-09-01T10:10:35;13.05;;;10.23;;
6937;SDS011;40040;42.706;23.372;2022-09-01T10:13:07;11.23;;;9.68;;
6937;SDS011;40040;42.706;23.372;2022-09-01T10:15:38;10.65;;;9.20;;
6937;SDS011;40040;42.706;23.372;2022-09-01T10:18:09;12.20;;;9.57;;
6937;SDS011;40040;42.706;23.372;2022-09-01T10:20:40;11.73;;;9.73;;
6937;SDS011;40040;42.706;23.372;2022-09-01T10:23:14;11.85;;;9.82;;
6937;SDS011;40040;42.706;23.372;2022-09-01T10:25:42;12.35;;;9.80;;
6937;SDS011;40040;42.706;23.372;2022-09-01T10:28:11;13.23;;;9.85;;
6937;SDS011;40040;42.706;23.372;2022-09-01T10:30:44;11.85;;;10.15;;
6937;SDS011;40040;42.706;23.372;2022-09-01T10:33:13;11.07;;;9.57;;
6937;SDS011;40040;42.706;23.372;2022-09-01T10:35:42;14.02;;;10.15;;
6937;SDS011;40040;42.706;23.372;2022-09-01T10:38:14;13.00;;;11.65;;
6937;SDS011;40040;42.706;23.372;2022-09-01T10:40:45;14.70;;;12.48;;
6937;SDS011;40040;42.706;23.372;2022-09-01T10:43:38;12.80;;;10.75;;
6937;SDS011;40040;42.706;23.372;2022-09-01T10:46:09;11.63;;;9.75;;
6937;SDS011;40040;42.706;23.372;2022-09-01T10:48:58;12.70;;;11.38;;
6937;SDS011;40040;42.706;23.372;2022-09-01T10:51:41;11.48;;;10.27;;
6937;SDS011;40040;42.706;23.372;2022-09-01T10:57:11;13.25;;;9.88;;
6937;SDS011;40040;42.706;23.372;2022-09-01T11:00:04;13.50;;;9.40;;
6937;SDS011;40040;42.706;23.372;2022-09-01T11:06:00;12.85;;;9.60;;
6937;SDS011;40040;42.706;23.372;2022-09-01T11:11:25;12.57;;;9.55;;
6937;SDS011;40040;42.706;23.372;2022-09-01T11:13:59;11.85;;;9.45;;
6937;SDS011;40040;42.706;23.372;2022-09-01T11:16:30;10.25;;;8.93;;
6937;SDS011;40040;42.706;23.372;2022-09-01T11:22:13;11.32;;;9.45;;
6937;SDS011;40040;42.706;23.372;2022-09-01T11:25:11;11.68;;;9.13;;
6937;SDS011;40040;42.706;23.372;2022-09-01T11:31:00;11.15;;;9.65;;
6937;SDS011;40040;42.706;23.372;2022-09-01T11:33:40;11.52;;;9.80;;
6937;SDS011;40040;42.706;23.372;2022-09-01T11:36:13;14.80;;;10.00;;
6937;SDS011;40040;42.706;23.372;2022-09-01T11:38:50;11.02;;;9.82;;
6937;SDS011;40040;42.706;23.372;2022-09-01T11:41:20;10.70;;;9.63;;
6937;SDS011;40040;42.706;23.372;2022-09-01T11:43:50;13.45;;;10.35;;
6937;SDS011;40040;42.706;23.372;2022-09-01T11:46:20;14.57;;;9.77;;
6937;SDS011;40040;42.706;23.372;2022-09-01T11:48:52;12.45;;;10.60;;
6937;SDS011;40040;42.706;23.372;2022-09-01T11:51:20;10.20;;;8.82;;
6937;SDS011;40040;42.706;23.372;2022-09-01T11:53:47;14.75;;;10.70;;
6937;SDS011;40040;42.706;23.372;2022-09-01T11:56:18;15.50;;;11.38;;
6937;SDS011;40040;42.706;23.372;2022-09-01T11:58:51;14.80;;;11.32;;
6937;SDS011;40040;42.706;23.372;2022-09-01T12:01:19;12.38;;;10.90;;
6937;SDS011;40040;42.706;23.372;2022-09-01T12:03:48;14.18;;;10.20;;
6937;SDS011;40040;42.706;23.372;2022-09-01T12:06:18;11.82;;;10.60;;
6937;SDS011;40040;42.706;23.372;2022-09-01T12:08:55;11.20;;;9.98;;
6937;SDS011;40040;42.706;23.372;2022-09-01T12:11:27;11.13;;;9.93;;
6937;SDS011;40040;42.706;23.372;2022-09-01T12:13:56;15.77;;;10.75;;
6937;SDS011;40040;42.706;23.372;2022-09-01T12:16:25;14.05;;;11.65;;
6937;SDS011;40040;42.706;23.372;2022-09-01T12:18:54;14.13;;;11.43;;
6937;SDS011;40040;42.706;23.372;2022-09-01T12:21:24;13.05;;;10.93;;
6937;SDS011;40040;42.706;23.372;2022-09-01T12:23:54;12.27;;;11.07;;
6937;SDS011;40040;42.706;23.372;2022-09-01T12:26:37;13.93;;;11.35;;
6937;SDS011;40040;42.706;23.372;2022-09-01T12:29:05;14.55;;;11.02;;
6937;SDS011;40040;42.706;23.372;2022-09-01T12:31:33;16.75;;;11.55;;
6937;SDS011;40040;42.706;23.372;2022-09-01T12:34:00;12.88;;;11.48;;
6937;SDS011;40040;42.706;23.372;2022-09-01T12:36:30;14.20;;;11.05;;
6937;SDS011;40040;42.706;23.372;2022-09-01T12:42:00;11.98;;;10.68;;
6937;SDS011;40040;42.706;23.372;2022-09-01T12:44:31;16.83;;;11.57;;
6937;SDS011;40040;42.706;23.372;2022-09-01T12:47:00;14.93;;;10.48;;
6937;SDS011;40040;42.706;23.372;2022-09-01T12:49:36;12.00;;;10.23;;
6937;SDS011;40040;42.706;23.372;2022-09-01T12:52:13;13.13;;;10.68;;
6937;SDS011;40040;42.706;23.372;2022-09-01T12:54:51;11.57;;;10.20;;
6937;SDS011;40040;42.706;23.372;2022-09-01T12:57:33;12.68;;;11.02;;
6937;SDS011;40040;42.706;23.372;2022-09-01T13:00:12;13.63;;;11.20;;
6937;SDS011;40040;42.706;23.372;2022-09-01T13:02:43;12.32;;;10.35;;
6937;SDS011;40040;42.706;23.372;2022-09-01T13:05:18;12.90;;;11.05;;
6937;SDS011;40040;42.706;23.372;2022-09-01T13:07:46;14.93;;;11.23;;
6937;SDS011;40040;42.706;23.372;2022-09-01T13:10:14;15.02;;;12.38;;
6937;SDS011;40040;42.706;23.372;2022-09-01T13:12:41;15.40;;;11.48;;
6937;SDS011;40040;42.706;23.372;2022-09-01T13:15:09;13.55;;;11.20;;
6937;SDS011;40040;42.706;23.372;2022-09-01T13:17:37;14.15;;;10.95;;
6937;SDS011;40040;42.706;23.372;2022-09-01T13:20:04;11.70;;;10.55;;
6937;SDS011;40040;42.706;23.372;2022-09-01T13:22:32;14.57;;;11.27;;
6937;SDS011;40040;42.706;23.372;2022-09-01T13:25:00;12.25;;;10.68;;
6937;SDS011;40040;42.706;23.372;2022-09-01T13:27:28;12.50;;;10.70;;
6937;SDS011;40040;42.706;23.372;2022-09-01T13:29:55;11.43;;;10.23;;
6937;SDS011;40040;42.706;23.372;2022-09-01T13:32:22;14.43;;;10.45;;
6937;SDS011;40040;42.706;23.372;2022-09-01T13:34:49;12.75;;;10.43;;
6937;SDS011;40040;42.706;23.372;2022-09-01T13:37:19;13.40;;;10.95;;
6937;SDS011;40040;42.706;23.372;2022-09-01T13:39:46;14.48;;;11.73;;
6937;SDS011;40040;42.706;23.372;2022-09-01T13:42:14;16.02;;;11.82;;
6937;SDS011;40040;42.706;23.372;2022-09-01T13:44:43;14.48;;;11.05;;
6937;SDS011;40040;42.706;23.372;2022-09-01T13:47:11;14.48;;;11.13;;
6937;SDS011;40040;42.706;23.372;2022-09-01T13:49:38;13.35;;;11.48;;
6937;SDS011;40040;42.706;23.372;2022-09-01T13:52:05;12.95;;;10.48;;
6937;SDS011;40040;42.706;23.372;2022-09-01T13:54:32;15.07;;;11.38;;
6937;SDS011;40040;42.706;23.372;2022-09-01T13:56:59;13.70;;;10.60;;
6937;SDS011;40040;42.706;23.372;2022-09-01T13:59:26;16.20;;;10.70;;
6937;SDS011;40040;42.706;23.372;2022-09-01T14:01:55;13.07;;;10.55;;
6937;SDS011;40040;42.706;23.372;2022-09-01T14:04:22;16.85;;;10.82;;
6937;SDS011;40040;42.706;23.372;2022-09-01T14:06:49;12.68;;;10.63;;
6937;SDS011;40040;42.706;23.372;2022-09-01T14:09:17;15.35;;;11.93;;
6937;SDS011;40040;42.706;23.372;2022-09-01T14:11:44;17.27;;;12.10;;
6937;SDS011;40040;42.706;23.372;2022-09-01T14:14:11;17.05;;;12.77;;
6937;SDS011;40040;42.706;23.372;2022-09-01T14:16:38;15.63;;;12.30;;
6937;SDS011;40040;42.706;23.372;2022-09-01T14:19:07;18.88;;;12.27;;
6937;SDS011;40040;42.706;23.372;2022-09-01T14:21:34;17.13;;;12.45;;
6937;SDS011;40040;42.706;23.372;2022-09-01T14:24:01;17.65;;;13.18;;
6937;SDS011;40040;42.706;23.372;2022-09-01T14:26:29;15.23;;;12.73;;
6937;SDS011;40040;42.706;23.372;2022-09-01T14:28:56;18.73;;;13.13;;
6937;SDS011;40040;42.706;23.372;2022-09-01T14:31:25;16.90;;;13.45;;
6937;SDS011;40040;42.706;23.372;2022-09-01T14:33:52;15.68;;;12.60;;
6937;SDS011;40040;42.706;23.372;2022-09-01T14:36:21;17.85;;;12.82;;
6937;SDS011;40040;42.706;23.372;2022-09-01T14:38:49;17.73;;;13.38;;
6937;SDS011;40040;42.706;23.372;2022-09-01T14:41:17;15.38;;;12.48;;
6937;SDS011;40040;42.706;23.372;2022-09-01T14:43:48;19.40;;;13.05;;
6937;SDS011;40040;42.706;23.372;2022-09-01T14:46:15;18.88;;;13.32;;
6937;SDS011;40040;42.706;23.372;2022-09-01T14:48:44;19.42;;;13.93;;
6937;SDS011;40040;42.706;23.372;2022-09-01T14:51:18;19.80;;;13.85;;
6937;SDS011;40040;42.706;23.372;2022-09-01T14:53:49;16.58;;;12.48;;
6937;SDS011;40040;42.706;23.372;2022-09-01T14:56:17;18.52;;;12.70;;
6937;SDS011;40040;42.706;23.372;2022-09-01T14:58:44;15.88;;;13.07;;
6937;SDS011;40040;42.706;23.372;2022-09-01T15:01:12;16.45;;;12.82;;